createdAt,value
2019-01-06T00:00:02.455Z,1032.75
2019-01-06T00:04:02.478Z,1032.74
2019-01-06T00:06:02.473Z,1032.74
2019-01-06T00:10:02.475Z,1032.77
2019-01-06T00:12:03.029Z,1032.71
2019-01-06T00:16:02.499Z,1032.71
2019-01-06T00:18:02.487Z,1032.76
2019-01-06T00:22:02.516Z,1032.67
2019-01-06T00:24:02.516Z,1032.72
2019-01-06T00:28:02.476Z,1032.70
2019-01-06T00:30:03.221Z,1032.76
2019-01-06T00:34:02.484Z,1032.79
2019-01-06T00:36:02.549Z,1032.80
2019-01-06T00:40:02.494Z,1032.81
2019-01-06T00:42:02.517Z,1032.82
2019-01-06T00:46:02.514Z,1032.79
2019-01-06T00:48:02.522Z,1032.87
2019-01-06T00:52:02.512Z,1032.88
2019-01-06T00:54:02.547Z,1032.87
2019-01-06T00:58:02.507Z,1032.92
2019-01-06T01:00:02.515Z,1032.96
2019-01-06T01:04:02.541Z,1032.96
2019-01-06T01:06:02.543Z,1032.94
2019-01-06T01:10:02.553Z,1032.96
2019-01-06T01:12:02.564Z,1032.93
2019-01-06T01:16:02.544Z,1032.97
2019-01-06T01:18:02.528Z,1032.97
2019-01-06T01:22:02.547Z,1033.01
2019-01-06T01:24:02.537Z,1033.02
2019-01-06T01:28:02.547Z,1033.08
2019-01-06T01:30:02.572Z,1033.09
2019-01-06T01:34:02.553Z,1033.12
2019-01-06T01:36:02.590Z,1033.14
2019-01-06T01:40:02.606Z,1033.25
2019-01-06T01:42:02.551Z,1033.20
2019-01-06T01:46:02.574Z,1033.23
2019-01-06T01:48:02.588Z,1033.17
2019-01-06T01:52:02.613Z,1033.20
2019-01-06T01:54:02.598Z,1033.23
2019-01-06T01:58:02.580Z,1033.20
2019-01-06T02:00:02.606Z,1033.19
2019-01-06T02:04:02.576Z,1033.25
2019-01-06T02:06:07.851Z,1033.20
2019-01-06T02:10:02.601Z,1033.24
2019-01-06T02:12:02.612Z,1033.25
2019-01-06T02:16:02.598Z,1033.29
2019-01-06T02:18:02.606Z,1033.26
2019-01-06T02:22:02.602Z,1033.30
2019-01-06T02:24:02.622Z,1033.38
2019-01-06T02:28:02.622Z,1033.30
2019-01-06T02:30:02.617Z,1033.26
2019-01-06T02:34:02.613Z,1033.28
2019-01-06T02:36:02.753Z,1033.26
2019-01-06T02:40:02.661Z,1033.31
2019-01-06T02:42:02.630Z,1033.30
2019-01-06T02:46:03.443Z,1033.35
2019-01-06T02:48:02.653Z,1033.26
2019-01-06T02:52:02.647Z,1033.31
2019-01-06T02:54:02.631Z,1033.28
2019-01-06T02:58:02.636Z,1033.29
2019-01-06T03:00:02.628Z,1033.26
2019-01-06T03:04:02.690Z,1033.16
2019-01-06T03:06:02.744Z,1033.23
2019-01-06T03:10:02.666Z,1033.24
2019-01-06T03:12:02.680Z,1033.23
2019-01-06T03:16:02.661Z,1033.22
2019-01-06T03:18:02.670Z,1033.20
2019-01-06T03:22:02.684Z,1033.09
2019-01-06T03:24:02.698Z,1033.04
2019-01-06T03:28:02.682Z,1033.04
2019-01-06T03:30:02.824Z,1032.95
2019-01-06T03:34:02.676Z,1032.90
2019-01-06T03:36:02.696Z,1032.97
2019-01-06T03:40:02.687Z,1032.96
2019-01-06T03:42:02.690Z,1032.93
2019-01-06T03:46:02.687Z,1032.87
2019-01-06T03:48:02.705Z,1032.85
2019-01-06T03:52:02.694Z,1032.81
2019-01-06T03:54:02.700Z,1032.88
2019-01-06T03:58:02.698Z,1032.85
2019-01-06T04:00:02.715Z,1032.86
2019-01-06T04:04:02.729Z,1032.81
2019-01-06T04:06:02.698Z,1032.84
2019-01-06T04:10:02.752Z,1032.84
2019-01-06T04:12:03.816Z,1032.87
2019-01-06T04:16:02.715Z,1032.82
2019-01-06T04:18:02.727Z,1032.82
2019-01-06T04:22:02.727Z,1032.81
2019-01-06T04:24:02.735Z,1032.81
2019-01-06T04:28:02.753Z,1032.80
2019-01-06T04:30:02.744Z,1032.75
2019-01-06T04:34:02.736Z,1032.81
2019-01-06T04:36:02.726Z,1032.80
2019-01-06T04:40:02.742Z,1032.77
2019-01-06T04:42:02.755Z,1032.82
2019-01-06T04:46:02.791Z,1032.71
2019-01-06T04:48:02.769Z,1032.79
2019-01-06T04:52:02.752Z,1032.78
2019-01-06T04:54:03.878Z,1032.72
2019-01-06T04:58:02.779Z,1032.74
2019-01-06T05:00:02.738Z,1032.66
2019-01-06T05:04:02.769Z,1032.70
2019-01-06T05:06:02.789Z,1032.69
2019-01-06T05:10:02.791Z,1032.77
2019-01-06T05:12:02.784Z,1032.74
2019-01-06T05:16:02.780Z,1032.72
2019-01-06T05:18:02.786Z,1032.78
2019-01-06T05:22:02.792Z,1032.91
2019-01-06T05:24:02.872Z,1032.87
2019-01-06T05:28:02.802Z,1032.92
2019-01-06T05:30:02.807Z,1032.93
2019-01-06T05:34:02.815Z,1032.90
2019-01-06T05:36:02.809Z,1032.90
2019-01-06T05:40:02.810Z,1033.00
2019-01-06T05:42:02.864Z,1033.03
2019-01-06T05:46:02.848Z,1033.03
2019-01-06T05:48:02.835Z,1032.98
2019-01-06T05:52:02.834Z,1033.08
2019-01-06T05:54:03.370Z,1033.09
2019-01-06T05:58:02.825Z,1033.08
2019-01-06T06:00:02.844Z,1033.16
2019-01-06T06:04:02.834Z,1033.14
2019-01-06T06:06:02.848Z,1033.14
2019-01-06T06:10:02.852Z,1033.19
2019-01-06T06:12:02.832Z,1033.19
2019-01-06T06:16:02.833Z,1033.23
2019-01-06T06:18:05.553Z,1033.20
2019-01-06T06:22:02.854Z,1033.27
2019-01-06T06:24:02.893Z,1033.28
2019-01-06T06:28:02.862Z,1033.27
2019-01-06T06:30:02.850Z,1033.29
2019-01-06T06:34:02.880Z,1033.29
2019-01-06T06:36:02.888Z,1033.26
2019-01-06T06:40:02.931Z,1033.30
2019-01-06T06:42:02.904Z,1033.29
2019-01-06T06:46:02.894Z,1033.27
2019-01-06T06:48:02.907Z,1033.24
2019-01-06T06:52:02.918Z,1033.22
2019-01-06T06:54:02.916Z,1033.26
2019-01-06T06:58:02.947Z,1033.27
2019-01-06T07:00:02.914Z,1033.33
2019-01-06T07:04:02.915Z,1033.36
2019-01-06T07:06:03.717Z,1033.30
2019-01-06T07:10:02.960Z,1033.38
2019-01-06T07:12:02.949Z,1033.40
2019-01-06T07:16:03.773Z,1033.37
2019-01-06T07:18:02.961Z,1033.46
2019-01-06T07:22:03.001Z,1033.53
2019-01-06T07:24:02.981Z,1033.44
2019-01-06T07:28:02.974Z,1033.51
2019-01-06T07:30:02.981Z,1033.52
2019-01-06T07:36:02.978Z,1033.57
2019-01-06T07:38:02.978Z,1033.68
2019-01-06T07:42:02.981Z,1033.72
2019-01-06T07:44:03.033Z,1033.77
2019-01-06T07:48:02.984Z,1033.74
2019-01-06T07:50:02.997Z,1033.70
2019-01-06T07:54:03.003Z,1033.79
2019-01-06T07:56:03.002Z,1033.81
2019-01-06T08:00:02.996Z,1033.90
2019-01-06T08:02:03.028Z,1033.89
2019-01-06T08:06:02.992Z,1033.85
2019-01-06T08:08:03.000Z,1033.91
2019-01-06T08:12:03.007Z,1033.88
2019-01-06T08:14:03.065Z,1033.97
2019-01-06T08:18:03.014Z,1033.90
2019-01-06T08:20:03.012Z,1033.91
2019-01-06T08:24:03.033Z,1033.93
2019-01-06T08:26:03.043Z,1033.94
2019-01-06T08:30:03.028Z,1033.95
2019-01-06T08:32:03.076Z,1033.99
2019-01-06T08:36:03.074Z,1033.96
2019-01-06T08:38:03.038Z,1033.98
2019-01-06T08:42:03.020Z,1034.03
2019-01-06T08:44:03.076Z,1033.99
2019-01-06T08:48:03.042Z,1034.08
2019-01-06T08:50:03.081Z,1034.06
2019-01-06T08:54:03.052Z,1034.07
2019-01-06T08:56:03.077Z,1034.05
2019-01-06T09:00:03.041Z,1034.03
2019-01-06T09:02:03.077Z,1034.09
2019-01-06T09:06:03.088Z,1034.08
2019-01-06T09:08:03.073Z,1034.18
2019-01-06T09:12:03.168Z,1034.19
2019-01-06T09:14:03.095Z,1034.13
2019-01-06T09:18:04.421Z,1034.14
2019-01-06T09:20:03.074Z,1034.10
2019-01-06T09:24:03.090Z,1034.16
2019-01-06T09:26:03.099Z,1034.13
2019-01-06T09:30:03.125Z,1034.19
2019-01-06T09:32:04.383Z,1034.14
2019-01-06T09:36:03.126Z,1034.24
2019-01-06T09:38:03.143Z,1034.22
2019-01-06T09:42:03.115Z,1034.35
2019-01-06T09:44:03.141Z,1034.40
2019-01-06T09:48:03.215Z,1034.39
2019-01-06T09:50:03.120Z,1034.37
2019-01-06T09:54:05.212Z,1034.40
2019-01-06T09:56:03.185Z,1034.45
2019-01-06T10:00:03.126Z,1034.49
2019-01-06T10:02:03.994Z,1034.46
2019-01-06T10:06:03.164Z,1034.47
2019-01-06T10:08:03.423Z,1034.47
2019-01-06T10:12:03.150Z,1034.52
2019-01-06T10:14:03.373Z,1034.53
2019-01-06T10:18:03.287Z,1034.51
2019-01-06T10:20:03.155Z,1034.60
2019-01-06T10:24:03.161Z,1034.60
2019-01-06T10:26:03.186Z,1034.61
2019-01-06T10:30:03.184Z,1034.60
2019-01-06T10:32:03.157Z,1034.55
2019-01-06T10:36:03.181Z,1034.61
2019-01-06T10:38:03.226Z,1034.58
2019-01-06T10:42:03.181Z,1034.57
2019-01-06T10:44:03.163Z,1034.63
2019-01-06T10:48:03.175Z,1034.56
2019-01-06T10:50:03.197Z,1034.61
2019-01-06T10:54:03.199Z,1034.56
2019-01-06T10:56:03.229Z,1034.54
2019-01-06T11:00:07.158Z,1034.60
2019-01-06T11:02:03.228Z,1034.62
2019-01-06T11:06:03.230Z,1034.70
2019-01-06T11:08:03.201Z,1034.68
2019-01-06T11:12:03.201Z,1034.71
2019-01-06T11:14:05.565Z,1034.64
2019-01-06T11:18:03.204Z,1034.65
2019-01-06T11:20:03.223Z,1034.62
2019-01-06T11:24:03.213Z,1034.69
2019-01-06T11:26:03.194Z,1034.67
2019-01-06T11:30:03.220Z,1034.59
2019-01-06T11:32:03.236Z,1034.62
2019-01-06T11:36:03.253Z,1034.60
2019-01-06T11:38:03.215Z,1034.58
2019-01-06T11:42:03.244Z,1034.66
2019-01-06T11:44:03.219Z,1034.60
2019-01-06T11:48:03.203Z,1034.62
2019-01-06T11:50:04.030Z,1034.61
2019-01-06T11:54:08.452Z,1034.56
2019-01-06T11:56:03.264Z,1034.54
2019-01-06T12:00:03.261Z,1034.47
2019-01-06T12:02:03.277Z,1034.47
2019-01-06T12:06:03.264Z,1034.44
2019-01-06T12:08:03.236Z,1034.41
2019-01-06T12:12:03.265Z,1034.37
2019-01-06T12:14:03.249Z,1034.38
2019-01-06T12:18:03.287Z,1034.35
2019-01-06T12:20:03.372Z,1034.32
2019-01-06T12:24:03.277Z,1034.25
2019-01-06T12:26:03.288Z,1034.32
2019-01-06T12:30:03.276Z,1034.28
2019-01-06T12:32:03.294Z,1034.29
2019-01-06T12:36:03.297Z,1034.29
2019-01-06T12:38:03.289Z,1034.30
2019-01-06T12:42:03.292Z,1034.23
2019-01-06T12:44:03.294Z,1034.20
2019-01-06T12:48:03.295Z,1034.25
2019-01-06T12:50:03.300Z,1034.26
2019-01-06T12:54:03.318Z,1034.26
2019-01-06T12:56:03.322Z,1034.30
2019-01-06T13:00:03.291Z,1034.24
2019-01-06T13:02:03.314Z,1034.24
2019-01-06T13:06:03.345Z,1034.28
2019-01-06T13:08:03.359Z,1034.27
2019-01-06T13:12:05.422Z,1034.28
2019-01-06T13:14:03.436Z,1034.24
2019-01-06T13:18:03.378Z,1034.30
2019-01-06T13:20:03.308Z,1034.28
2019-01-06T13:24:03.337Z,1034.29
2019-01-06T13:28:03.359Z,1034.33
2019-01-06T13:30:03.330Z,1034.38
2019-01-06T13:34:03.390Z,1034.42
2019-01-06T13:36:03.363Z,1034.41
2019-01-06T13:40:03.400Z,1034.45
2019-01-06T13:42:03.363Z,1034.43
2019-01-06T13:46:03.372Z,1034.41
2019-01-06T13:48:03.411Z,1034.45
2019-01-06T13:52:03.392Z,1034.48
2019-01-06T13:54:03.348Z,1034.42
2019-01-06T13:58:03.369Z,1034.45
2019-01-06T14:00:03.366Z,1034.53
2019-01-06T14:04:03.369Z,1034.47
2019-01-06T14:06:03.398Z,1034.47
2019-01-06T14:10:03.434Z,1034.50
2019-01-06T14:12:03.368Z,1034.45
2019-01-06T14:16:03.440Z,1034.53
2019-01-06T14:18:03.408Z,1034.52
2019-01-06T14:22:03.418Z,1034.61
2019-01-06T14:24:03.411Z,1034.55
2019-01-06T14:28:03.411Z,1034.57
2019-01-06T14:30:03.417Z,1034.59
2019-01-06T14:34:03.453Z,1034.61
2019-01-06T14:36:03.471Z,1034.58
2019-01-06T14:40:03.496Z,1034.54
2019-01-06T14:42:03.440Z,1034.56
2019-01-06T14:46:03.466Z,1034.56
2019-01-06T14:48:03.551Z,1034.52
2019-01-06T14:52:03.477Z,1034.57
2019-01-06T14:54:03.491Z,1034.66
2019-01-06T14:58:03.509Z,1034.68
2019-01-06T15:00:03.475Z,1034.67
2019-01-06T15:04:05.383Z,1034.69
2019-01-06T15:06:03.477Z,1034.71
2019-01-06T15:10:03.482Z,1034.68
2019-01-06T15:12:03.481Z,1034.77
2019-01-06T15:16:03.496Z,1034.82
2019-01-06T15:18:03.521Z,1034.89
2019-01-06T15:22:03.520Z,1034.89
2019-01-06T15:24:03.546Z,1034.90
2019-01-06T15:28:03.524Z,1034.90
2019-01-06T15:30:03.539Z,1034.87
2019-01-06T15:34:03.548Z,1034.81
2019-01-06T15:36:03.566Z,1034.85
2019-01-06T15:40:03.534Z,1034.88
2019-01-06T15:42:03.526Z,1034.86
2019-01-06T15:46:03.537Z,1034.86
2019-01-06T15:48:03.505Z,1034.94
2019-01-06T15:52:03.527Z,1034.94
2019-01-06T15:54:03.518Z,1034.91
2019-01-06T15:58:03.535Z,1034.96
2019-01-06T16:00:03.543Z,1035.01
2019-01-06T16:04:03.598Z,1035.04
2019-01-06T16:06:03.597Z,1035.07
2019-01-06T16:10:04.311Z,1035.10
2019-01-06T16:12:03.598Z,1035.12
2019-01-06T16:16:03.646Z,1035.14
2019-01-06T16:18:03.881Z,1035.21
2019-01-06T16:22:03.588Z,1035.24
2019-01-06T16:24:03.604Z,1035.25
2019-01-06T16:28:03.605Z,1035.17
2019-01-06T16:30:03.582Z,1035.21
2019-01-06T16:34:03.613Z,1035.16
2019-01-06T16:36:03.590Z,1035.21
2019-01-06T16:40:03.652Z,1035.19
2019-01-06T16:42:03.604Z,1035.25
2019-01-06T16:46:03.625Z,1035.14
2019-01-06T16:48:10.083Z,1035.15
2019-01-06T16:52:04.262Z,1035.17
2019-01-06T16:54:03.677Z,1035.17
2019-01-06T16:58:03.619Z,1035.11
2019-01-06T17:00:03.660Z,1035.14
2019-01-06T17:04:03.648Z,1035.10
2019-01-06T17:06:03.643Z,1035.14
2019-01-06T17:10:03.678Z,1035.19
2019-01-06T17:12:03.688Z,1035.17
2019-01-06T17:16:03.659Z,1035.23
2019-01-06T17:18:03.662Z,1035.21
2019-01-06T17:22:03.852Z,1035.19
2019-01-06T17:24:03.631Z,1035.20
2019-01-06T17:28:03.662Z,1035.24
2019-01-06T17:30:03.654Z,1035.25
2019-01-06T17:34:03.666Z,1035.29
2019-01-06T17:36:03.669Z,1035.34
2019-01-06T17:40:03.674Z,1035.34
2019-01-06T17:42:06.590Z,1035.31
2019-01-06T17:46:03.700Z,1035.27
2019-01-06T17:48:03.692Z,1035.30
2019-01-06T17:52:03.718Z,1035.37
2019-01-06T17:54:03.694Z,1035.29
2019-01-06T17:58:03.686Z,1035.35
2019-01-06T18:00:03.742Z,1035.32
2019-01-06T18:04:03.795Z,1035.35
2019-01-06T18:06:03.728Z,1035.38
2019-01-06T18:10:03.718Z,1035.37
2019-01-06T18:12:03.755Z,1035.42
2019-01-06T18:16:03.860Z,1035.40
2019-01-06T18:18:03.721Z,1035.44
2019-01-06T18:22:03.803Z,1035.52
2019-01-06T18:24:03.764Z,1035.49
2019-01-06T18:28:03.789Z,1035.53
2019-01-06T18:30:03.974Z,1035.54
2019-01-06T18:34:03.808Z,1035.57
2019-01-06T18:36:03.784Z,1035.53
2019-01-06T18:40:03.770Z,1035.57
2019-01-06T18:42:03.776Z,1035.54
2019-01-06T18:46:03.796Z,1035.57
2019-01-06T18:48:03.831Z,1035.57
2019-01-06T18:52:03.790Z,1035.68
2019-01-06T18:54:03.826Z,1035.62
2019-01-06T18:58:03.817Z,1035.69
2019-01-06T19:00:03.801Z,1035.67
2019-01-06T19:04:03.829Z,1035.71
2019-01-06T19:06:08.325Z,1035.73
2019-01-06T19:10:03.824Z,1035.73
2019-01-06T19:12:03.844Z,1035.76
2019-01-06T19:16:03.822Z,1035.73
2019-01-06T19:18:06.191Z,1035.71
2019-01-06T19:22:03.825Z,1035.68
2019-01-06T19:24:03.911Z,1035.65
2019-01-06T19:28:03.869Z,1035.62
2019-01-06T19:30:03.913Z,1035.66
2019-01-06T19:34:03.869Z,1035.64
2019-01-06T19:36:03.860Z,1035.67
2019-01-06T19:42:03.893Z,1035.63
2019-01-06T19:44:03.884Z,1035.68
2019-01-06T19:48:03.965Z,1035.67
2019-01-06T19:50:03.919Z,1035.63
2019-01-06T19:54:03.921Z,1035.61
2019-01-06T19:56:03.945Z,1035.64
2019-01-06T20:00:03.959Z,1035.68
2019-01-06T20:02:03.930Z,1035.59
2019-01-06T20:06:03.945Z,1035.65
2019-01-06T20:08:03.960Z,1035.66
2019-01-06T20:12:03.993Z,1035.68
2019-01-06T20:14:03.943Z,1035.65
2019-01-06T20:18:04.026Z,1035.65
2019-01-06T20:20:03.956Z,1035.60
2019-01-06T20:24:04.009Z,1035.57
2019-01-06T20:26:03.989Z,1035.63
2019-01-06T20:30:03.987Z,1035.64
2019-01-06T20:32:03.983Z,1035.62
2019-01-06T20:36:04.010Z,1035.63
2019-01-06T20:38:04.024Z,1035.61
2019-01-06T20:42:04.014Z,1035.58
2019-01-06T20:44:04.008Z,1035.55
2019-01-06T20:48:04.214Z,1035.57
2019-01-06T20:50:04.006Z,1035.59
2019-01-06T20:54:04.020Z,1035.59
2019-01-06T20:56:04.038Z,1035.60
2019-01-06T21:00:04.032Z,1035.54
2019-01-06T21:02:04.075Z,1035.52
2019-01-06T21:06:04.036Z,1035.49
2019-01-06T21:08:04.084Z,1035.53
2019-01-06T21:12:04.035Z,1035.43
2019-01-06T21:14:04.058Z,1035.40
2019-01-06T21:18:04.070Z,1035.38
2019-01-06T21:20:04.090Z,1035.42
2019-01-06T21:24:04.075Z,1035.39
2019-01-06T21:26:04.088Z,1035.46
2019-01-06T21:30:04.105Z,1035.44
2019-01-06T21:32:04.117Z,1035.43
2019-01-06T21:36:04.081Z,1035.47
2019-01-06T21:38:04.092Z,1035.45
2019-01-06T21:42:04.116Z,1035.52
2019-01-06T21:44:04.098Z,1035.45
2019-01-06T21:48:04.148Z,1035.48
2019-01-06T21:50:04.133Z,1035.53
2019-01-06T21:54:04.388Z,1035.50
2019-01-06T21:56:04.126Z,1035.57
2019-01-06T22:00:08.342Z,1035.56
2019-01-06T22:02:09.204Z,1035.61
2019-01-06T22:06:04.136Z,1035.74
2019-01-06T22:08:04.200Z,1035.68
2019-01-06T22:12:08.945Z,1035.77
2019-01-06T22:14:04.168Z,1035.74
2019-01-06T22:18:04.181Z,1035.78
2019-01-06T22:20:04.203Z,1035.87
2019-01-06T22:24:04.200Z,1035.84
2019-01-06T22:26:08.707Z,1035.81
2019-01-06T22:30:04.197Z,1035.79
2019-01-06T22:32:04.180Z,1035.84
2019-01-06T22:36:04.210Z,1035.82
2019-01-06T22:38:04.200Z,1035.74
2019-01-06T22:42:04.206Z,1035.75
2019-01-06T22:44:04.229Z,1035.72
2019-01-06T22:48:09.043Z,1035.79
2019-01-06T22:50:04.168Z,1035.70
2019-01-06T22:54:04.224Z,1035.67
2019-01-06T22:56:04.203Z,1035.68
2019-01-06T23:00:04.252Z,1035.62
2019-01-06T23:02:04.196Z,1035.57
2019-01-06T23:06:04.241Z,1035.70
2019-01-06T23:08:04.222Z,1035.65
2019-01-06T23:12:05.608Z,1035.53
2019-01-06T23:14:04.267Z,1035.58
2019-01-06T23:18:04.232Z,1035.63
2019-01-06T23:20:04.291Z,1035.64
2019-01-06T23:24:05.363Z,1035.72
2019-01-06T23:26:05.313Z,1035.73
2019-01-06T23:30:04.249Z,1035.69
2019-01-06T23:32:04.282Z,1035.69
2019-01-06T23:36:04.247Z,1035.64
2019-01-06T23:38:04.260Z,1035.64
2019-01-06T23:42:04.485Z,1035.68
2019-01-06T23:44:05.323Z,1035.63
2019-01-06T23:48:04.329Z,1035.74
2019-01-06T23:50:04.299Z,1035.70
2019-01-06T23:54:04.317Z,1035.76
2019-01-06T23:56:05.434Z,1035.77
